Time;durP1;ratioP1;P1;durP2;ratioP2;P2;SDS_P1;SDS_P2;PMS_P1;PMS_P2;Temp;Humidity;BMP_temperature;BMP_pressure;BME280_temperature;BME280_humidity;BME280_pressure;Samples;Min_cycle;Max_cycle;Signal;HPM_P1;HPM_P2
2023/01/02 00:01:44;;;;;;;7.57;4.15;;;8.90;99.90;;;;;;5051488;28;20079;-62
2023/01/02 00:04:09;;;;;;;8.50;2.60;;;8.90;99.90;;;;;;5051133;28;20508;-62
2023/01/02 00:06:36;;;;;;;8.48;2.50;;;8.90;99.90;;;;;;5068311;28;20044;-62
2023/01/02 00:09:03;;;;;;;8.27;2.28;;;8.90;99.90;;;;;;5072679;28;20048;-62
2023/01/02 00:11:29;;;;;;;8.65;2.42;;;8.90;99.90;;;;;;5054593;28;20374;-62
2023/01/02 00:13:55;;;;;;;10.93;2.45;;;8.90;99.90;;;;;;5071035;28;20047;-62
2023/01/02 00:16:21;;;;;;;10.27;2.28;;;8.90;99.90;;;;;;5072399;28;20515;-62
2023/01/02 00:18:46;;;;;;;7.85;2.25;;;8.90;99.90;;;;;;5070595;28;20076;-62
2023/01/02 00:21:12;;;;;;;6.25;2.20;;;8.90;99.90;;;;;;5072023;28;20075;-62
2023/01/02 00:23:38;;;;;;;6.78;2.03;;;8.90;99.90;;;;;;5054575;28;20125;-62
2023/01/02 00:26:04;;;;;;;9.65;2.50;;;8.90;99.90;;;;;;5071235;28;20420;-62
2023/01/02 00:28:29;;;;;;;8.75;2.83;;;8.90;99.90;;;;;;5072207;28;20036;-62
2023/01/02 00:30:55;;;;;;;9.45;2.65;;;8.90;99.90;;;;;;5054296;28;20131;-62
2023/01/02 00:33:21;;;;;;;8.25;2.60;;;8.90;99.90;;;;;;5056642;28;20041;-62
2023/01/02 00:35:47;;;;;;;5.53;2.50;;;8.80;99.90;;;;;;5052235;28;20044;-62
2023/01/02 00:38:13;;;;;;;8.57;2.78;;;8.90;99.90;;;;;;5052017;28;20041;-62
2023/01/02 00:40:39;;;;;;;11.98;3.45;;;8.90;99.90;;;;;;5050374;28;20044;-62
2023/01/02 00:43:04;;;;;;;6.68;3.08;;;8.80;99.90;;;;;;5034159;28;20051;-62
2023/01/02 00:45:30;;;;;;;8.52;2.97;;;8.90;99.90;;;;;;5051028;28;20047;-63
2023/01/02 00:47:56;;;;;;;14.00;5.25;;;8.90;99.90;;;;;;5051046;28;20033;-62
2023/01/02 00:50:22;;;;;;;11.98;5.72;;;8.90;99.90;;;;;;5050546;28;20075;-62
2023/01/02 00:52:47;;;;;;;10.73;3.95;;;8.90;99.90;;;;;;5050543;28;20120;-62
2023/01/02 00:55:13;;;;;;;8.38;4.82;;;8.90;99.90;;;;;;5051050;28;20049;-63
2023/01/02 00:57:38;;;;;;;10.27;4.35;;;8.90;99.90;;;;;;5057889;28;20037;-63
2023/01/02 01:00:06;;;;;;;7.72;3.75;;;8.90;99.90;;;;;;5071376;28;20040;-62
2023/01/02 01:02:32;;;;;;;7.45;3.95;;;9.00;99.90;;;;;;5069813;28;20040;-63
2023/01/02 01:04:58;;;;;;;8.02;4.55;;;9.00;99.90;;;;;;5070902;28;20557;-63
2023/01/02 01:07:23;;;;;;;7.55;4.50;;;9.10;99.90;;;;;;5071066;28;20166;-63
2023/01/02 01:09:49;;;;;;;7.40;4.20;;;9.00;99.90;;;;;;5071514;28;20043;-63
2023/01/02 01:12:14;;;;;;;8.75;4.65;;;9.00;99.90;;;;;;5070666;28;20504;-63
2023/01/02 01:14:40;;;;;;;10.45;5.15;;;9.10;99.90;;;;;;5060130;28;20849;-63
2023/01/02 01:17:06;;;;;;;11.75;6.22;;;9.20;99.90;;;;;;5050298;28;20499;-63
2023/01/02 01:19:33;;;;;;;10.18;5.68;;;9.20;99.90;;;;;;5050701;28;20119;-63
2023/01/02 01:21:59;;;;;;;9.52;6.10;;;9.20;99.90;;;;;;5032893;28;20081;-63
2023/01/02 01:24:25;;;;;;;11.00;6.32;;;9.30;99.90;;;;;;5050405;28;20524;-63
2023/01/02 01:26:51;;;;;;;13.05;6.80;;;9.30;99.90;;;;;;5063746;28;20060;-63
2023/01/02 01:29:16;;;;;;;10.80;6.13;;;9.30;99.90;;;;;;5070591;28;20495;-63
2023/01/02 01:31:42;;;;;;;11.07;5.85;;;9.30;99.90;;;;;;5070478;28;20054;-63
2023/01/02 01:34:11;;;;;;;14.73;7.40;;;9.40;99.90;;;;;;5070308;28;20094;-62
2023/01/02 01:36:36;;;;;;;11.70;6.70;;;9.40;99.90;;;;;;5070859;28;20044;-62
2023/01/02 01:39:02;;;;;;;10.75;6.03;;;9.50;99.90;;;;;;5056644;28;20410;-63
2023/01/02 01:41:28;;;;;;;13.63;8.13;;;9.50;99.90;;;;;;5039302;28;20450;-63
2023/01/02 01:43:54;;;;;;;11.85;8.00;;;9.60;99.90;;;;;;5074747;28;20039;-63
2023/01/02 01:46:36;;;;;;;11.88;7.60;;;9.60;99.90;;;;;;5075240;28;20028;-63
2023/01/02 01:49:04;;;;;;;10.23;6.65;;;9.60;99.90;;;;;;5057292;28;20041;-63
2023/01/02 01:51:35;;;;;;;10.75;6.20;;;9.70;99.90;;;;;;5036900;28;20086;-63
2023/01/02 01:54:09;;;;;;;9.88;6.70;;;9.70;99.90;;;;;;5037368;28;20045;-63
2023/01/02 01:56:38;;;;;;;12.45;7.68;;;9.70;99.90;;;;;;5065124;28;20493;-63
2023/01/02 01:59:04;;;;;;;10.13;5.50;;;9.80;99.90;;;;;;5059551;28;20055;-63
2023/01/02 02:01:32;;;;;;;10.05;6.20;;;9.80;99.90;;;;;;5072566;28;20055;-63
2023/01/02 02:03:58;;;;;;;11.00;6.30;;;9.90;99.90;;;;;;5074415;28;20048;-63
2023/01/02 02:06:24;;;;;;;9.82;5.78;;;9.90;99.90;;;;;;5073266;28;20052;-62
2023/01/02 02:08:58;;;;;;;10.90;5.18;;;10.00;99.90;;;;;;5074599;28;20381;-63
2023/01/02 02:11:24;;;;;;;9.43;5.43;;;10.00;99.90;;;;;;5056098;28;20127;-63
2023/01/02 02:13:50;;;;;;;8.30;4.95;;;10.00;99.90;;;;;;5074889;28;20075;-62
2023/01/02 02:16:16;;;;;;;10.50;6.13;;;10.00;99.90;;;;;;5057021;28;20462;-63
2023/01/02 02:19:03;;;;;;;9.50;5.05;;;10.00;99.90;;;;;;5054220;28;20072;-63
2023/01/02 02:21:44;;;;;;;9.68;6.20;;;10.00;99.90;;;;;;5037145;28;20453;-63
2023/01/02 02:24:51;;;;;;;9.52;5.85;;;10.10;99.90;;;;;;5054625;28;20068;-63
2023/01/02 02:27:54;;;;;;;10.63;6.47;;;10.10;99.90;;;;;;5007268;28;20080;-62
2023/01/02 02:30:28;;;;;;;9.98;6.32;;;10.10;99.90;;;;;;5071787;28;20458;-63
2023/01/02 02:33:07;;;;;;;10.43;6.63;;;10.10;99.90;;;;;;5073979;28;20040;-63
2023/01/02 02:36:00;;;;;;;11.40;7.47;;;10.00;99.90;;;;;;5073440;28;20032;-63
2023/01/02 02:38:47;;;;;;;10.68;6.57;;;10.00;99.90;;;;;;5061525;28;20120;-63
2023/01/02 02:41:42;;;;;;;12.27;8.30;;;10.10;99.90;;;;;;5060133;28;20041;-63
2023/01/02 02:44:31;;;;;;;11.57;8.25;;;10.10;99.90;;;;;;5054332;28;20037;-63
2023/01/02 02:47:10;;;;;;;13.63;9.32;;;10.10;99.90;;;;;;5037750;28;20487;-62
2023/01/02 02:49:48;;;;;;;15.05;10.95;;;10.10;99.90;;;;;;5074569;28;20397;-63
2023/01/02 02:52:25;;;;;;;18.38;11.27;;;10.10;99.90;;;;;;5071467;28;20048;-62
2023/01/02 02:55:15;;;;;;;20.60;12.80;;;10.20;99.90;;;;;;5055291;28;20041;-63
2023/01/02 02:57:43;;;;;;;20.55;13.68;;;10.20;99.90;;;;;;5074501;28;20047;-63
2023/01/02 03:00:12;;;;;;;21.45;14.55;;;10.20;99.90;;;;;;5072185;28;20047;-63
2023/01/02 03:02:38;;;;;;;24.58;16.02;;;10.20;99.90;;;;;;5072580;28;20074;-63
2023/01/02 03:05:08;;;;;;;26.98;16.70;;;10.30;99.90;;;;;;5055534;28;20499;-63
2023/01/02 03:07:52;;;;;;;29.17;18.83;;;10.30;99.90;;;;;;5073365;28;20043;-63
2023/01/02 03:10:39;;;;;;;26.45;17.83;;;10.40;99.90;;;;;;5073889;28;20374;-63
2023/01/02 03:13:29;;;;;;;30.00;17.60;;;10.40;99.90;;;;;;5072369;28;20120;-63
2023/01/02 03:16:33;;;;;;;24.45;17.30;;;10.40;99.90;;;;;;5071662;28;20195;-63
2023/01/02 03:19:21;;;;;;;27.10;16.23;;;10.40;99.90;;;;;;5072366;28;20098;-63
2023/01/02 03:21:58;;;;;;;27.65;17.90;;;10.50;99.90;;;;;;5072694;28;20136;-62
2023/01/02 03:24:24;;;;;;;30.05;18.63;;;10.50;99.90;;;;;;5072311;28;20048;-63
2023/01/02 03:26:57;;;;;;;24.48;16.73;;;10.60;99.90;;;;;;5071975;28;20087;-63
2023/01/02 03:29:48;;;;;;;29.88;19.33;;;10.50;99.90;;;;;;5071634;28;20040;-63
2023/01/02 03:32:22;;;;;;;28.08;17.48;;;10.60;99.90;;;;;;5056300;28;20052;-63
2023/01/02 03:34:48;;;;;;;28.23;17.00;;;10.60;99.90;;;;;;5059849;28;20516;-63
2023/01/02 03:37:21;;;;;;;28.45;16.88;;;10.60;99.90;;;;;;5071352;28;20044;-63
2023/01/02 03:39:51;;;;;;;26.30;16.90;;;10.60;99.90;;;;;;5073490;28;20040;-63
2023/01/02 03:42:26;;;;;;;25.65;15.70;;;10.60;99.90;;;;;;5071141;28;20501;-63
2023/01/02 03:44:56;;;;;;;28.33;16.60;;;10.60;99.90;;;;;;5071843;28;20048;-63
2023/01/02 03:47:56;;;;;;;29.23;16.55;;;10.60;99.90;;;;;;5071162;28;20481;-63
2023/01/02 03:50:49;;;;;;;25.30;16.40;;;10.60;99.90;;;;;;5034769;28;20049;-63
2023/01/02 03:53:15;;;;;;;25.23;15.50;;;10.70;99.90;;;;;;5035104;28;20049;-63
2023/01/02 03:55:47;;;;;;;22.70;14.65;;;10.70;99.90;;;;;;5035584;28;20055;-63
2023/01/02 03:58:40;;;;;;;21.15;14.38;;;10.70;99.90;;;;;;5050940;28;20049;-63
2023/01/02 04:01:11;;;;;;;19.20;13.60;;;10.70;99.90;;;;;;5018224;28;20045;-63
2023/01/02 04:03:48;;;;;;;24.70;15.82;;;10.70;99.90;;;;;;5039353;28;20436;-63
2023/01/02 04:06:18;;;;;;;23.60;15.02;;;10.70;99.90;;;;;;5072854;28;20378;-63
2023/01/02 04:08:55;;;;;;;21.60;15.43;;;10.70;99.90;;;;;;5071272;28;20477;-63
2023/01/02 04:11:23;;;;;;;23.52;15.27;;;10.70;99.90;;;;;;5070299;28;20094;-63
2023/01/02 04:13:57;;;;;;;22.70;14.77;;;10.70;99.90;;;;;;5063490;28;20036;-63
2023/01/02 04:16:28;;;;;;;21.58;13.43;;;10.70;99.90;;;;;;5072083;28;20401;-63
2023/01/02 04:19:02;;;;;;;21.95;14.18;;;10.70;99.90;;;;;;5071699;28;20044;-63
2023/01/02 04:21:32;;;;;;;21.40;14.20;;;10.70;99.90;;;;;;5038127;28;20090;-63
2023/01/02 04:24:12;;;;;;;26.48;16.35;;;10.70;99.90;;;;;;5072379;28;20040;-63
2023/01/02 04:26:43;;;;;;;23.00;14.23;;;10.80;99.90;;;;;;5071563;28;20525;-63
2023/01/02 04:29:09;;;;;;;24.90;15.77;;;10.80;99.90;;;;;;5066914;28;20032;-62
2023/01/02 04:31:49;;;;;;;19.13;14.18;;;10.70;99.90;;;;;;5071639;28;20393;-62
2023/01/02 04:34:17;;;;;;;24.90;15.32;;;10.80;99.90;;;;;;5072113;28;20051;-63
2023/01/02 04:36:43;;;;;;;24.13;13.90;;;10.80;99.90;;;;;;5054204;28;20037;-63
2023/01/02 04:39:09;;;;;;;23.83;16.02;;;10.80;99.90;;;;;;5070048;28;20485;-63
2023/01/02 04:41:36;;;;;;;25.00;15.45;;;10.80;99.90;;;;;;5071149;28;20477;-63
2023/01/02 04:44:02;;;;;;;21.42;13.77;;;10.80;99.90;;;;;;5054063;28;20041;-63
2023/01/02 04:46:28;;;;;;;23.65;15.95;;;10.80;99.90;;;;;;5071263;28;20130;-63
2023/01/02 04:48:55;;;;;;;28.60;16.73;;;10.80;99.90;;;;;;5064154;28;20032;-63
2023/01/02 04:51:21;;;;;;;22.48;14.52;;;10.80;99.90;;;;;;5033970;28;20045;-63
2023/01/02 04:53:48;;;;;;;21.42;13.40;;;10.70;99.90;;;;;;5050995;28;20080;-63
2023/01/02 04:56:14;;;;;;;18.58;12.32;;;10.80;99.90;;;;;;5034149;28;20048;-63
2023/01/02 04:58:41;;;;;;;21.63;12.82;;;10.70;99.90;;;;;;5053470;28;20037;-63
2023/01/02 05:01:10;;;;;;;21.23;12.88;;;10.80;99.90;;;;;;5071006;28;20119;-62
2023/01/02 05:03:41;;;;;;;24.58;15.48;;;10.80;99.90;;;;;;5054077;28;20066;-63
2023/01/02 05:06:07;;;;;;;19.80;11.77;;;10.80;99.90;;;;;;5071844;28;20043;-63
2023/01/02 05:08:34;;;;;;;19.27;12.48;;;10.80;99.90;;;;;;5053187;28;20044;-63
2023/01/02 05:11:11;;;;;;;18.95;12.70;;;10.70;99.90;;;;;;5071923;28;20052;-63
2023/01/02 05:13:37;;;;;;;19.13;12.57;;;10.80;99.90;;;;;;5052971;28;20036;-62
2023/01/02 05:16:03;;;;;;;19.90;13.23;;;10.70;99.90;;;;;;5072438;28;20095;-62
2023/01/02 05:18:30;;;;;;;18.48;11.95;;;10.70;99.90;;;;;;5076060;28;20093;-63
2023/01/02 05:21:00;;;;;;;18.33;12.85;;;10.70;99.90;;;;;;5073994;28;20032;-63
2023/01/02 05:26:10;;;;;;;21.08;14.35;;;10.70;99.90;;;;;;5075235;28;20101;-63
2023/01/02 05:28:36;;;;;;;18.50;12.27;;;10.70;99.90;;;;;;5040525;28;20128;-63
2023/01/02 05:31:01;;;;;;;16.17;10.82;;;10.70;99.90;;;;;;5075667;28;20111;-63
2023/01/02 05:33:27;;;;;;;20.60;12.45;;;10.70;99.90;;;;;;5074167;28;20099;-63
2023/01/02 05:35:53;;;;;;;19.08;13.00;;;10.60;99.90;;;;;;5074923;28;20146;-63
2023/01/02 05:38:18;;;;;;;18.25;12.15;;;10.70;99.90;;;;;;5075742;28;20044;-63
2023/01/02 05:40:44;;;;;;;18.63;13.20;;;10.70;99.90;;;;;;5073919;28;20071;-63
2023/01/02 05:43:10;;;;;;;17.55;11.85;;;10.60;99.90;;;;;;5074456;28;20033;-63
2023/01/02 05:45:35;;;;;;;19.75;12.75;;;10.60;99.90;;;;;;5074416;28;20048;-63
2023/01/02 05:48:01;;;;;;;17.25;12.25;;;10.70;99.90;;;;;;5073910;28;20441;-63
2023/01/02 05:50:26;;;;;;;17.80;11.32;;;10.60;99.90;;;;;;5074350;28;20115;-63
2023/01/02 05:52:54;;;;;;;16.90;11.68;;;10.60;99.90;;;;;;5073903;28;20037;-63
2023/01/02 05:55:20;;;;;;;16.23;12.18;;;10.60;99.90;;;;;;5074977;28;20443;-63
2023/01/02 05:57:45;;;;;;;17.45;11.85;;;10.60;99.90;;;;;;5056694;28;20040;-63
2023/01/02 06:00:12;;;;;;;16.00;10.38;;;10.60;99.90;;;;;;5075105;28;20401;-63
2023/01/02 06:02:37;;;;;;;12.00;8.38;;;10.60;99.90;;;;;;5074971;28;20500;-63
2023/01/02 06:05:04;;;;;;;13.57;9.35;;;10.60;99.90;;;;;;5072847;28;20123;-63
2023/01/02 06:07:29;;;;;;;16.42;10.85;;;10.50;99.90;;;;;;5073866;28;20079;-63
2023/01/02 06:09:55;;;;;;;21.50;11.77;;;10.40;99.90;;;;;;5072787;28;20068;-63
2023/01/02 06:12:20;;;;;;;23.75;11.68;;;10.30;99.90;;;;;;5073394;28;20036;-64
2023/01/02 06:14:46;;;;;;;21.35;11.27;;;10.10;99.90;;;;;;5056649;28;20082;-63
2023/01/02 06:17:12;;;;;;;16.52;8.70;;;9.80;99.90;;;;;;5072736;28;20484;-63
2023/01/02 06:19:37;;;;;;;17.95;8.98;;;9.60;99.90;;;;;;5074057;28;20393;-63
2023/01/02 06:22:03;;;;;;;17.35;7.95;;;9.50;99.90;;;;;;5055123;28;20044;-63
2023/01/02 06:24:29;;;;;;;11.38;5.15;;;9.40;99.90;;;;;;5066490;28;20051;-63
2023/01/02 06:26:54;;;;;;;9.27;4.90;;;9.30;99.90;;;;;;5040475;28;20053;-63
2023/01/02 06:29:20;;;;;;;9.50;3.58;;;9.20;99.90;;;;;;5033426;28;20045;-63
2023/01/02 06:31:46;;;;;;;9.15;3.25;;;9.10;99.90;;;;;;5033791;28;20119;-63
2023/01/02 06:34:12;;;;;;;11.60;3.67;;;9.00;99.90;;;;;;5032761;28;20096;-63
2023/01/02 06:36:37;;;;;;;9.48;3.10;;;8.90;99.90;;;;;;5033490;28;20045;-63
2023/01/02 06:39:03;;;;;;;8.75;3.67;;;8.90;99.90;;;;;;5032520;28;20391;-63
2023/01/02 06:41:29;;;;;;;8.07;2.95;;;8.80;99.90;;;;;;5032830;28;20049;-63
2023/01/02 06:43:55;;;;;;;6.70;2.17;;;8.80;99.90;;;;;;5034250;28;20041;-63
2023/01/02 06:46:22;;;;;;;4.57;1.77;;;8.70;99.90;;;;;;5032028;28;20041;-63
2023/01/02 06:48:49;;;;;;;3.20;1.05;;;8.60;99.90;;;;;;5033974;28;20372;-63
2023/01/02 06:51:20;;;;;;;2.20;0.77;;;8.60;99.90;;;;;;5032818;28;20045;-62
2023/01/02 06:53:45;;;;;;;2.70;0.98;;;8.50;99.90;;;;;;5032139;28;20046;-62
2023/01/02 06:56:14;;;;;;;5.18;1.40;;;8.40;99.90;;;;;;5032555;28;20406;-63
2023/01/02 06:58:39;;;;;;;8.80;2.03;;;8.40;99.90;;;;;;5032913;28;20037;-63
2023/01/02 07:01:19;;;;;;;5.35;1.25;;;8.30;99.90;;;;;;5032605;28;20501;-63
2023/01/02 07:03:45;;;;;;;4.07;1.30;;;8.30;99.90;;;;;;5014623;28;20379;-63
2023/01/02 07:06:16;;;;;;;4.88;1.45;;;8.30;99.90;;;;;;5013454;28;20041;-63
2023/01/02 07:08:42;;;;;;;4.93;1.48;;;8.30;99.90;;;;;;5010429;28;20045;-63
2023/01/02 07:11:17;;;;;;;4.45;1.48;;;8.20;99.90;;;;;;5013723;28;20100;-63
2023/01/02 07:13:44;;;;;;;4.88;1.50;;;8.20;99.90;;;;;;5013081;28;20042;-63
2023/01/02 07:16:12;;;;;;;6.65;1.85;;;8.20;99.90;;;;;;5030055;28;20049;-62
2023/01/02 07:18:39;;;;;;;5.63;2.00;;;8.30;99.90;;;;;;5028512;28;20448;-63
2023/01/02 07:21:06;;;;;;;6.47;1.88;;;8.20;99.90;;;;;;5029077;28;20037;-63
2023/01/02 07:23:32;;;;;;;5.10;1.70;;;8.20;99.90;;;;;;5027997;28;20049;-62
2023/01/02 07:26:00;;;;;;;4.90;1.73;;;8.20;99.90;;;;;;5039133;28;20083;-63
2023/01/02 07:28:27;;;;;;;5.20;1.48;;;8.20;99.90;;;;;;5069011;28;20129;-63
2023/01/02 07:31:01;;;;;;;5.47;1.58;;;8.20;99.90;;;;;;5069821;28;20044;-63
2023/01/02 07:33:28;;;;;;;4.28;1.10;;;8.20;99.90;;;;;;5071171;28;20401;-63
2023/01/02 07:35:58;;;;;;;5.82;1.55;;;8.20;99.90;;;;;;5041574;28;20059;-63
2023/01/02 07:38:24;;;;;;;6.50;1.50;;;8.20;99.90;;;;;;5048799;28;20083;-63
2023/01/02 07:40:50;;;;;;;5.97;1.40;;;8.20;99.90;;;;;;5059176;28;20048;-62
2023/01/02 07:43:15;;;;;;;4.35;1.73;;;8.20;99.90;;;;;;5070343;28;20405;-63
2023/01/02 07:45:41;;;;;;;4.85;1.52;;;8.20;99.90;;;;;;5070366;28;20044;-63
2023/01/02 07:48:07;;;;;;;5.75;2.50;;;8.20;99.90;;;;;;5070913;28;20032;-62
2023/01/02 07:50:32;;;;;;;5.22;1.92;;;8.10;99.90;;;;;;5068861;28;20072;-62
2023/01/02 07:52:58;;;;;;;7.05;1.90;;;8.10;99.90;;;;;;5069156;28;20044;-63
2023/01/02 07:55:24;;;;;;;6.10;2.15;;;8.10;99.90;;;;;;5044074;28;20504;-62
2023/01/02 07:57:49;;;;;;;5.60;2.08;;;8.10;99.90;;;;;;5049664;28;20041;-63
2023/01/02 08:00:17;;;;;;;5.82;1.90;;;8.10;99.90;;;;;;5065685;28;20055;-63
2023/01/02 08:02:43;;;;;;;7.13;1.63;;;8.10;99.90;;;;;;5068408;28;20049;-62
2023/01/02 08:05:09;;;;;;;4.68;1.65;;;8.10;99.90;;;;;;5067080;28;20089;-63
2023/01/02 08:07:34;;;;;;;7.35;3.22;;;8.10;99.90;;;;;;5069439;28;20052;-62
2023/01/02 08:10:00;;;;;;;9.23;2.42;;;8.10;99.90;;;;;;5068603;28;20044;-62
2023/01/02 08:12:26;;;;;;;6.55;2.25;;;8.10;99.90;;;;;;5067619;28;20036;-63
2023/01/02 08:14:52;;;;;;;9.73;2.35;;;8.00;99.90;;;;;;5069179;28;20131;-62
2023/01/02 08:17:17;;;;;;;6.88;2.38;;;8.10;99.90;;;;;;5068295;28;20132;-62
2023/01/02 08:19:43;;;;;;;10.07;2.05;;;8.10;99.90;;;;;;5051772;28;20052;-62
2023/01/02 08:22:09;;;;;;;8.77;2.13;;;8.10;99.90;;;;;;5060977;28;20053;-62
2023/01/02 08:24:35;;;;;;;6.80;2.10;;;8.10;99.90;;;;;;5049994;28;20040;-63
2023/01/02 08:27:00;;;;;;;7.72;1.77;;;8.10;99.90;;;;;;5066973;28;20056;-63
2023/01/02 08:29:26;;;;;;;7.68;3.13;;;8.10;99.90;;;;;;5068036;28;20032;-62
2023/01/02 08:31:51;;;;;;;7.10;2.20;;;8.10;99.90;;;;;;5051677;28;20143;-62
2023/01/02 08:34:17;;;;;;;7.57;2.20;;;8.10;99.90;;;;;;5058226;28;20056;-63
2023/01/02 08:36:43;;;;;;;8.57;2.30;;;8.10;99.90;;;;;;5067873;28;20045;-62
2023/01/02 08:39:09;;;;;;;8.68;3.28;;;8.10;99.90;;;;;;5069506;28;20420;-62
2023/01/02 08:41:37;;;;;;;5.10;2.85;;;8.10;99.90;;;;;;5068909;28;20102;-62
2023/01/02 08:44:04;;;;;;;10.75;3.85;;;8.10;99.90;;;;;;5051803;28;20048;-62
2023/01/02 08:46:31;;;;;;;13.85;5.65;;;8.10;99.90;;;;;;5052902;28;20029;-62
2023/01/02 08:48:57;;;;;;;8.85;3.40;;;8.10;99.90;;;;;;5065238;28;20481;-62
2023/01/02 08:51:23;;;;;;;10.77;2.55;;;8.10;99.90;;;;;;5033152;28;20098;-62
2023/01/02 08:53:48;;;;;;;8.65;3.20;;;8.10;99.90;;;;;;5047494;28;20102;-62
2023/01/02 08:56:24;;;;;;;9.68;3.20;;;8.10;99.90;;;;;;5046918;28;20033;-62
2023/01/02 08:58:57;;;;;;;9.25;3.33;;;8.20;99.90;;;;;;5045938;28;20052;-62
2023/01/02 09:01:24;;;;;;;10.45;3.92;;;8.10;99.90;;;;;;5061938;28;20048;-62
2023/01/02 09:03:51;;;;;;;9.82;5.95;;;8.20;99.90;;;;;;5065374;28;20036;-63
2023/01/02 09:06:17;;;;;;;11.98;5.57;;;8.20;99.90;;;;;;5052630;28;20405;-62
2023/01/02 09:08:42;;;;;;;11.32;4.40;;;8.20;99.90;;;;;;5047855;28;20037;-62
2023/01/02 09:11:13;;;;;;;15.93;5.85;;;8.20;99.90;;;;;;5059056;28;20032;-64
2023/01/02 09:13:40;;;;;;;12.30;5.47;;;8.20;99.90;;;;;;5067373;28;20084;-63
2023/01/02 09:16:07;;;;;;;10.07;3.78;;;8.30;99.90;;;;;;5039097;28;20099;-62
2023/01/02 09:18:32;;;;;;;10.40;4.15;;;8.20;99.90;;;;;;5047910;28;20462;-63
2023/01/02 09:20:58;;;;;;;17.73;9.55;;;8.30;99.90;;;;;;5051650;28;20048;-64
2023/01/02 09:23:24;;;;;;;13.02;6.88;;;8.30;99.90;;;;;;5046944;28;20041;-63
2023/01/02 09:25:49;;;;;;;8.25;4.60;;;8.20;99.90;;;;;;5060960;28;20087;-62
2023/01/02 09:28:15;;;;;;;12.02;6.35;;;8.30;99.90;;;;;;5065275;28;20053;-63
2023/01/02 09:30:41;;;;;;;56.28;40.78;;;8.30;99.90;;;;;;5047475;28;20040;-63
2023/01/02 09:33:07;;;;;;;13.40;7.47;;;8.30;99.90;;;;;;5034543;28;20123;-62
2023/01/02 09:35:34;;;;;;;18.50;11.23;;;8.30;99.90;;;;;;5068247;28;20043;-64
2023/01/02 09:38:00;;;;;;;69.70;44.72;;;8.30;99.90;;;;;;5050894;28;20036;-63
2023/01/02 09:40:27;;;;;;;16.38;10.80;;;8.30;99.90;;;;;;5034023;28;20128;-63
2023/01/02 09:42:54;;;;;;;15.40;10.25;;;8.30;99.90;;;;;;5050190;28;20049;-63
2023/01/02 09:45:21;;;;;;;38.35;28.42;;;8.30;99.90;;;;;;5068249;28;20704;-63
2023/01/02 09:47:47;;;;;;;8.55;4.65;;;8.30;99.90;;;;;;5034269;28;20028;-63
2023/01/02 09:50:19;;;;;;;8.75;4.47;;;8.30;99.90;;;;;;5066557;28;20043;-63
2023/01/02 09:52:54;;;;;;;25.42;18.80;;;8.40;99.90;;;;;;5068361;28;20040;-63
2023/01/02 09:55:44;;;;;;;5.05;2.35;;;8.40;99.90;;;;;;5037866;28;20036;-63
2023/01/02 09:58:16;;;;;;;11.57;9.13;;;8.40;99.90;;;;;;5036222;28;20124;-63
2023/01/02 10:00:45;;;;;;;6.07;1.98;;;8.40;99.90;;;;;;5050690;28;20041;-63
2023/01/02 10:03:48;;;;;;;7.15;2.10;;;8.40;99.90;;;;;;5071696;28;20047;-62
2023/01/02 10:06:23;;;;;;;3.30;1.20;;;8.40;99.90;;;;;;5052440;28;20037;-63
2023/01/02 10:08:58;;;;;;;4.70;1.67;;;8.40;99.90;;;;;;5055602;28;20044;-63
2023/01/02 10:11:47;;;;;;;5.40;2.58;;;8.40;99.90;;;;;;5054868;28;20945;-63
2023/01/02 10:14:25;;;;;;;5.18;2.33;;;8.40;99.90;;;;;;5072617;28;20505;-63
2023/01/02 10:16:55;;;;;;;6.10;2.40;;;8.40;99.90;;;;;;5070417;28;20044;-63
2023/01/02 10:19:38;;;;;;;7.13;2.33;;;8.40;99.90;;;;;;5071276;28;20040;-63
2023/01/02 10:22:10;;;;;;;7.72;2.30;;;8.40;99.90;;;;;;5069686;28;20052;-64
2023/01/02 10:25:07;;;;;;;7.55;2.75;;;8.50;99.90;;;;;;5054306;28;20494;-65
2023/01/02 10:27:40;;;;;;;8.05;2.60;;;8.50;99.90;;;;;;5059188;28;20130;-65
2023/01/02 10:30:14;;;;;;;5.18;2.30;;;8.50;99.90;;;;;;5054909;28;20501;-66
2023/01/02 10:32:45;;;;;;;8.07;2.53;;;8.50;99.90;;;;;;5053806;28;20528;-65
2023/01/02 10:35:28;;;;;;;5.88;2.38;;;8.50;99.90;;;;;;5037505;28;20477;-64
2023/01/02 10:37:55;;;;;;;6.32;2.50;;;8.50;99.90;;;;;;5071050;28;20564;-65
2023/01/02 10:40:21;;;;;;;6.97;2.85;;;8.60;99.90;;;;;;5053334;28;20052;-65
2023/01/02 10:42:52;;;;;;;8.15;2.30;;;8.50;99.90;;;;;;5078713;28;20144;-65
2023/01/02 10:45:18;;;;;;;6.00;2.80;;;8.50;99.90;;;;;;5059226;28;20439;-64
2023/01/02 10:47:45;;;;;;;6.00;2.58;;;8.50;99.90;;;;;;5048353;28;20125;-65
2023/01/02 10:50:19;;;;;;;6.30;2.15;;;8.50;99.90;;;;;;5074385;28;20044;-64
2023/01/02 10:53:03;;;;;;;10.48;2.53;;;8.50;99.90;;;;;;5055612;28;20496;-65
2023/01/02 10:55:40;;;;;;;8.73;3.60;;;8.50;99.90;;;;;;5020247;28;20128;-65
2023/01/02 10:58:20;;;;;;;8.52;2.42;;;8.50;99.90;;;;;;5054312;28;20044;-65
2023/01/02 11:00:48;;;;;;;9.50;3.13;;;8.50;99.90;;;;;;5072792;28;20037;-65
2023/01/02 11:03:16;;;;;;;6.60;2.22;;;8.40;99.90;;;;;;5055633;28;20171;-65
2023/01/02 11:06:00;;;;;;;6.13;2.75;;;8.40;99.90;;;;;;5059835;28;20040;-64
2023/01/02 11:08:38;;;;;;;6.20;2.58;;;8.40;99.90;;;;;;5072972;28;20127;-63
2023/01/02 11:11:23;;;;;;;9.00;4.53;;;8.40;99.90;;;;;;5072701;28;20393;-66
2023/01/02 11:13:51;;;;;;;7.47;3.45;;;8.40;99.90;;;;;;5070683;28;20028;-64
2023/01/02 11:16:17;;;;;;;8.77;2.70;;;8.30;99.90;;;;;;5056362;28;20504;-64
2023/01/02 11:18:57;;;;;;;6.47;2.38;;;8.30;99.90;;;;;;5073041;28;20048;-64
2023/01/02 11:21:27;;;;;;;9.35;2.75;;;8.30;99.90;;;;;;5071637;28;20052;-64
2023/01/02 11:23:58;;;;;;;6.60;2.45;;;8.30;99.90;;;;;;5058733;28;20056;-64
2023/01/02 11:26:26;;;;;;;11.68;2.53;;;8.40;99.90;;;;;;5041979;28;20057;-65
2023/01/02 11:28:55;;;;;;;10.88;3.33;;;8.50;99.90;;;;;;5013064;28;20037;-65
2023/01/02 11:31:22;;;;;;;5.60;2.03;;;8.50;99.90;;;;;;5015765;28;20125;-65
2023/01/02 11:33:47;;;;;;;5.72;1.95;;;8.60;99.90;;;;;;5031632;28;20042;-64
2023/01/02 11:36:16;;;;;;;9.63;2.40;;;8.60;99.90;;;;;;5033680;28;20039;-65
2023/01/02 11:38:57;;;;;;;10.07;2.53;;;8.60;99.90;;;;;;5033181;28;20040;-64
2023/01/02 11:44:49;;;;;;;15.60;3.35;;;8.70;99.90;;;;;;5032629;28;20049;-64
2023/01/02 11:47:16;;;;;;;7.63;2.35;;;8.70;99.90;;;;;;5031974;28;20052;-65
2023/01/02 11:49:44;;;;;;;11.20;2.38;;;8.70;99.90;;;;;;5031363;28;20041;-65
2023/01/02 11:52:17;;;;;;;9.15;2.10;;;8.70;99.90;;;;;;5032570;28;20040;-64
2023/01/02 11:54:55;;;;;;;7.25;2.00;;;8.70;99.90;;;;;;5031431;28;20041;-65
2023/01/02 11:58:02;;;;;;;8.80;2.35;;;8.70;99.90;;;;;;5031413;28;20048;-64
2023/01/02 12:00:32;;;;;;;6.47;1.70;;;8.70;99.90;;;;;;4995152;28;20125;-64
2023/01/02 12:03:10;;;;;;;8.30;2.45;;;8.70;99.90;;;;;;5012398;28;20048;-64
2023/01/02 12:06:08;;;;;;;8.40;2.13;;;8.70;99.90;;;;;;5024840;28;20061;-64
2023/01/02 12:08:55;;;;;;;8.93;1.92;;;8.70;99.90;;;;;;5032502;28;20048;-65
2023/01/02 12:11:36;;;;;;;10.68;2.13;;;8.70;99.90;;;;;;5031886;28;20045;-65
2023/01/02 12:14:09;;;;;;;10.18;1.90;;;8.80;99.90;;;;;;5030763;28;20056;-65
2023/01/02 12:16:55;;;;;;;8.15;2.13;;;8.70;99.90;;;;;;5031090;28;20103;-65
2023/01/02 12:19:26;;;;;;;;;;;8.80;99.90;;;;;;5031260;28;20083;-65
2023/01/02 12:22:04;;;;;;;10.65;2.42;;;8.70;99.90;;;;;;5031652;28;20322;-66
2023/01/02 12:25:00;;;;;;;11.75;2.65;;;8.80;99.90;;;;;;5030665;28;20072;-65
2023/01/02 12:27:34;;;;;;;;;;;8.80;99.90;;;;;;5015617;28;20048;-66
2023/01/02 12:30:28;;;;;;;7.32;2.13;;;8.80;99.90;;;;;;5051283;28;19924;-66
2023/01/02 12:33:00;;;;;;;11.18;2.55;;;8.90;99.90;;;;;;5048210;28;20057;-66
2023/01/02 12:35:35;;;;;;;7.50;2.17;;;8.90;99.90;;;;;;5051828;28;20040;-65
2023/01/02 12:38:07;;;;;;;12.25;3.75;;;8.90;99.90;;;;;;5050211;28;20044;-66
2023/01/02 12:40:45;;;;;;;9.98;3.30;;;9.00;99.90;;;;;;5051520;28;20045;-66
2023/01/02 12:43:32;;;;;;;12.13;3.25;;;9.00;99.90;;;;;;5051021;28;20128;-66
2023/01/02 12:46:00;;;;;;;9.23;2.97;;;9.00;99.90;;;;;;5050699;28;20041;-66
2023/01/02 12:48:53;;;;;;;13.55;2.85;;;9.00;99.90;;;;;;5051644;28;20033;-66
2023/01/02 12:51:43;;;;;;;9.77;3.10;;;9.00;99.90;;;;;;5050252;28;20091;-66
2023/01/02 12:54:17;;;;;;;10.40;2.92;;;9.00;99.90;;;;;;5052093;28;20120;-65
2023/01/02 12:57:06;;;;;;;11.80;2.60;;;9.00;99.90;;;;;;5051296;28;20072;-66
2023/01/02 12:59:38;;;;;;;11.00;2.70;;;9.00;99.90;;;;;;5050477;28;20056;-64
2023/01/02 13:02:12;;;;;;;12.18;2.97;;;9.00;99.90;;;;;;5050527;28;20136;-65
2023/01/02 13:04:43;;;;;;;13.20;3.05;;;9.00;99.90;;;;;;5052120;28;20111;-65
2023/01/02 13:07:19;;;;;;;9.43;2.30;;;9.00;99.90;;;;;;5050437;28;20037;-65
2023/01/02 13:09:47;;;;;;;9.63;2.33;;;9.00;99.90;;;;;;5051012;28;20036;-65
2023/01/02 13:12:32;;;;;;;10.70;3.35;;;9.00;99.90;;;;;;5051261;28;20130;-66